Time;durP1;ratioP1;P1;durP2;ratioP2;P2;SDS_P1;SDS_P2;PMS_P1;PMS_P2;Temp;Humidity;BMP_temperature;BMP_pressure;BME280_temperature;BME280_humidity;BME280_pressure;Samples;Min_cycle;Max_cycle;Signal;HPM_P1;HPM_P2
2021/12/27 00:01:13;;;;;;;24.95;15.18;;;0.10;99.90;;;;;;5086246;27;20625;-83
2021/12/27 00:03:39;;;;;;;26.55;14.77;;;0.10;99.90;;;;;;5021842;28;20040;-83
2021/12/27 00:06:09;;;;;;;24.13;14.50;;;0.10;99.90;;;;;;5023652;28;20032;-83
2021/12/27 00:08:41;;;;;;;23.65;14.95;;;0.20;99.90;;;;;;5001147;28;20569;-82
2021/12/27 00:11:11;;;;;;;24.02;15.35;;;0.10;99.90;;;;;;5045450;27;20042;-83
2021/12/27 00:13:37;;;;;;;26.00;15.57;;;0.10;99.90;;;;;;5042303;28;20056;-82
2021/12/27 00:16:03;;;;;;;24.58;15.05;;;0.10;99.90;;;;;;5127687;27;20048;-83
2021/12/27 00:18:29;;;;;;;23.17;14.80;;;0.10;99.90;;;;;;5118876;27;20103;-83
2021/12/27 00:20:55;;;;;;;24.23;15.50;;;0.10;99.90;;;;;;5110778;27;20048;-82
2021/12/27 00:23:21;;;;;;;21.92;14.65;;;0.20;99.90;;;;;;5035282;28;20051;-83
2021/12/27 00:25:47;;;;;;;23.80;14.45;;;0.10;99.90;;;;;;5048702;27;20048;-83
2021/12/27 00:28:13;;;;;;;25.88;15.35;;;0.10;99.90;;;;;;5031916;28;20131;-83
2021/12/27 00:30:39;;;;;;;25.17;16.15;;;0.10;99.90;;;;;;5024802;28;20045;-82
2021/12/27 00:33:05;;;;;;;22.13;14.88;;;0.10;99.90;;;;;;4996126;28;20041;-83
2021/12/27 00:35:32;;;;;;;25.42;15.20;;;0.10;99.90;;;;;;5051544;27;20040;-82
2021/12/27 00:37:59;;;;;;;24.45;15.35;;;0.10;99.90;;;;;;5015629;28;20051;-82
2021/12/27 00:40:25;;;;;;;25.35;15.93;;;0.10;99.90;;;;;;5101307;28;20033;-83
2021/12/27 00:42:51;;;;;;;25.98;15.55;;;0.10;99.90;;;;;;5022234;28;20097;-82
2021/12/27 00:45:18;;;;;;;27.17;16.73;;;0.10;99.90;;;;;;5008288;27;20047;-84
2021/12/27 00:47:44;;;;;;;25.73;15.32;;;0.10;99.90;;;;;;5038983;28;20112;-83
2021/12/27 00:50:11;;;;;;;24.95;16.23;;;0.00;99.90;;;;;;5118555;27;20422;-82
2021/12/27 00:52:37;;;;;;;25.23;15.80;;;0.10;99.90;;;;;;5031922;28;20052;-83
2021/12/27 00:55:05;;;;;;;25.20;16.25;;;0.00;99.90;;;;;;5016871;27;20037;-84
2021/12/27 00:57:31;;;;;;;27.30;17.10;;;0.00;99.90;;;;;;5027546;28;20112;-83
2021/12/27 00:59:56;;;;;;;24.27;16.08;;;0.00;99.90;;;;;;5032362;27;20131;-83
2021/12/27 01:02:22;;;;;;;27.88;17.17;;;0.00;99.90;;;;;;5014988;28;20537;-83
2021/12/27 01:04:48;;;;;;;28.48;16.23;;;-0.10;99.90;;;;;;5048319;28;20045;-83
2021/12/27 01:07:14;;;;;;;25.02;15.77;;;0.00;99.90;;;;;;5043633;27;20139;-81
2021/12/27 01:15:08;;;;;;;25.33;16.85;;;0.00;99.90;;;;;;5035345;28;20529;-81
2021/12/27 01:17:37;;;;;;;27.30;16.25;;;0.00;99.90;;;;;;5019158;28;20048;-81
2021/12/27 01:20:05;;;;;;;27.75;17.23;;;0.00;99.90;;;;;;5090767;27;20049;-81
2021/12/27 01:22:30;;;;;;;28.08;16.50;;;0.00;99.90;;;;;;5140248;27;20043;-82
2021/12/27 01:24:56;;;;;;;26.08;16.27;;;0.00;99.90;;;;;;5044561;27;20042;-81
2021/12/27 01:27:22;;;;;;;26.88;17.65;;;0.00;99.90;;;;;;5093179;27;20045;-81
2021/12/27 01:29:47;;;;;;;27.77;16.98;;;0.00;99.90;;;;;;5019168;28;20071;-81
2021/12/27 01:32:13;;;;;;;26.50;16.50;;;0.00;99.90;;;;;;5038506;27;20131;-81
2021/12/27 01:34:39;;;;;;;27.17;16.75;;;0.00;99.90;;;;;;5035441;28;20044;-82
2021/12/27 01:37:06;;;;;;;29.25;16.40;;;0.00;99.90;;;;;;5019075;28;20399;-81
2021/12/27 01:39:31;;;;;;;26.73;17.25;;;0.00;99.90;;;;;;5030622;28;20109;-81
2021/12/27 01:41:57;;;;;;;26.85;17.65;;;0.10;99.90;;;;;;5101897;28;20178;-81
2021/12/27 01:44:23;;;;;;;28.20;16.88;;;0.10;99.90;;;;;;5116033;27;20042;-81
2021/12/27 01:46:51;;;;;;;27.42;17.15;;;0.10;99.90;;;;;;5045769;28;20056;-81
2021/12/27 01:49:17;;;;;;;28.58;17.85;;;0.10;99.90;;;;;;5104822;27;20045;-81
2021/12/27 01:51:44;;;;;;;29.58;17.42;;;0.10;99.90;;;;;;5088220;28;20048;-81
2021/12/27 01:54:10;;;;;;;26.70;17.02;;;0.10;99.90;;;;;;5122026;27;20790;-81
2021/12/27 01:56:36;;;;;;;26.42;16.67;;;0.10;99.90;;;;;;5040048;27;20041;-81
2021/12/27 01:59:03;;;;;;;28.27;17.88;;;0.10;99.90;;;;;;5101427;27;20080;-81
2021/12/27 02:01:28;;;;;;;29.25;18.30;;;0.10;99.90;;;;;;5034820;28;20266;-81
2021/12/27 02:03:55;;;;;;;27.98;17.10;;;0.10;99.90;;;;;;5034825;28;20036;-81
2021/12/27 02:06:22;;;;;;;26.92;17.38;;;0.10;99.90;;;;;;5034680;28;20113;-81
2021/12/27 02:08:48;;;;;;;29.05;18.85;;;0.10;99.90;;;;;;5018525;28;20752;-81
2021/12/27 02:11:16;;;;;;;28.92;18.10;;;0.10;99.90;;;;;;5111121;27;20041;-81
2021/12/27 02:13:44;;;;;;;30.40;17.45;;;0.20;99.90;;;;;;5105444;27;20091;-81
2021/12/27 02:16:21;;;;;;;27.02;17.13;;;0.10;99.90;;;;;;5076258;28;20057;-82
2021/12/27 02:18:48;;;;;;;28.75;18.08;;;0.10;99.90;;;;;;5034750;28;20411;-82
2021/12/27 02:21:14;;;;;;;27.45;17.13;;;0.10;99.90;;;;;;5052754;27;20545;-81
2021/12/27 02:23:41;;;;;;;29.95;17.77;;;0.10;99.90;;;;;;4998341;28;20045;-81
2021/12/27 02:26:08;;;;;;;26.02;16.92;;;0.10;99.90;;;;;;5063150;28;20150;-82
2021/12/27 02:28:34;;;;;;;26.95;17.38;;;0.10;99.90;;;;;;5121502;27;20053;-81
2021/12/27 02:30:59;;;;;;;27.38;17.65;;;0.10;99.90;;;;;;5121752;27;20786;-82
2021/12/27 02:33:25;;;;;;;28.52;17.83;;;0.10;99.90;;;;;;5100969;27;20465;-81
2021/12/27 02:35:57;;;;;;;30.08;18.42;;;0.10;99.90;;;;;;5018981;28;20061;-81
2021/12/27 02:38:27;;;;;;;30.48;17.83;;;0.10;99.90;;;;;;5059596;28;20041;-81
2021/12/27 02:40:53;;;;;;;27.15;17.48;;;0.10;99.90;;;;;;5014722;28;20367;-82
2021/12/27 02:43:21;;;;;;;30.80;18.63;;;0.10;99.90;;;;;;5052042;27;20046;-81
2021/12/27 02:45:56;;;;;;;27.23;17.60;;;0.10;99.90;;;;;;5121141;27;20055;-81
2021/12/27 02:48:25;;;;;;;28.27;17.90;;;0.10;99.90;;;;;;5114888;27;20146;-81
2021/12/27 02:50:52;;;;;;;29.50;18.90;;;0.10;99.90;;;;;;5033909;28;20033;-81
2021/12/27 02:53:19;;;;;;;29.42;18.60;;;0.10;99.90;;;;;;5033766;28;20048;-82
2021/12/27 02:55:47;;;;;;;29.90;18.30;;;0.10;99.90;;;;;;5034271;28;20128;-81
2021/12/27 02:58:13;;;;;;;28.65;17.98;;;0.10;99.90;;;;;;5071616;27;20049;-81
2021/12/27 03:00:47;;;;;;;28.58;17.73;;;0.10;99.90;;;;;;5033941;28;20469;-81
2021/12/27 03:03:13;;;;;;;28.20;17.90;;;0.10;99.90;;;;;;5071997;27;20045;-81
2021/12/27 03:05:42;;;;;;;28.05;18.25;;;0.10;99.90;;;;;;5031783;28;20033;-81
2021/12/27 03:08:13;;;;;;;30.10;18.92;;;0.10;99.90;;;;;;5033631;28;20049;-81
2021/12/27 03:10:44;;;;;;;29.42;18.02;;;0.10;99.90;;;;;;5071522;28;20053;-81
2021/12/27 03:13:18;;;;;;;28.15;18.90;;;0.10;99.90;;;;;;5033994;28;20037;-81
2021/12/27 03:15:44;;;;;;;31.50;19.52;;;0.10;99.90;;;;;;5033861;28;20055;-81
2021/12/27 03:18:11;;;;;;;29.27;18.88;;;0.00;99.90;;;;;;5017272;28;20714;-81
2021/12/27 03:20:36;;;;;;;29.00;18.90;;;0.10;99.90;;;;;;5016826;28;20477;-81
2021/12/27 03:23:02;;;;;;;27.50;17.85;;;0.10;99.90;;;;;;5011578;28;20037;-81
2021/12/27 03:25:28;;;;;;;30.45;18.70;;;0.10;99.90;;;;;;5060146;28;20037;-81
2021/12/27 03:27:53;;;;;;;28.73;18.42;;;0.10;99.90;;;;;;5045760;28;20500;-81
2021/12/27 03:30:24;;;;;;;31.30;18.77;;;0.10;99.90;;;;;;5051476;28;20044;-83
2021/12/27 03:32:51;;;;;;;27.83;18.25;;;0.10;99.90;;;;;;5016828;28;20045;-81
2021/12/27 03:35:25;;;;;;;31.30;19.35;;;0.20;99.90;;;;;;5017100;28;20045;-82
2021/12/27 03:37:53;;;;;;;30.45;19.25;;;0.10;99.90;;;;;;5016761;28;20041;-81
2021/12/27 03:40:20;;;;;;;29.33;18.77;;;0.10;99.90;;;;;;5016384;28;20385;-82
2021/12/27 03:42:49;;;;;;;30.95;19.25;;;0.20;99.90;;;;;;5102004;28;20049;-81
2021/12/27 03:45:21;;;;;;;29.45;19.63;;;0.20;99.90;;;;;;5063937;27;20169;-81
2021/12/27 03:47:47;;;;;;;30.42;18.23;;;0.20;99.90;;;;;;5032902;28;20169;-81
2021/12/27 03:50:13;;;;;;;29.27;18.83;;;0.10;99.90;;;;;;4999929;28;20041;-81
2021/12/27 03:52:39;;;;;;;29.75;19.92;;;0.20;99.90;;;;;;5032530;28;20047;-81
2021/12/27 03:55:06;;;;;;;28.98;18.75;;;0.10;99.90;;;;;;5001528;28;20369;-81
2021/12/27 03:57:35;;;;;;;29.83;19.48;;;0.10;99.90;;;;;;5032436;28;20414;-81
2021/12/27 04:00:30;;;;;;;29.10;18.63;;;0.10;99.90;;;;;;5016317;28;20049;-83
2021/12/27 04:02:59;;;;;;;28.17;18.55;;;0.10;99.90;;;;;;5032670;28;20037;-82
2021/12/27 04:05:26;;;;;;;29.92;19.17;;;0.20;99.90;;;;;;5015194;28;20070;-83
2021/12/27 04:08:03;;;;;;;28.42;19.20;;;0.20;99.90;;;;;;5032035;28;20123;-81
2021/12/27 04:10:29;;;;;;;29.33;18.75;;;0.20;99.90;;;;;;5032072;28;20056;-81
2021/12/27 04:12:56;;;;;;;31.73;19.98;;;0.20;99.90;;;;;;5016139;28;20045;-82
2021/12/27 04:15:22;;;;;;;29.65;20.17;;;0.30;99.90;;;;;;5015148;28;20037;-82
2021/12/27 04:17:49;;;;;;;29.02;18.35;;;0.20;99.90;;;;;;5015584;28;20148;-83
2021/12/27 04:20:14;;;;;;;33.40;19.95;;;0.20;99.90;;;;;;5032312;28;20041;-81
2021/12/27 04:22:40;;;;;;;32.75;20.15;;;0.20;99.90;;;;;;5036682;27;20362;-81
2021/12/27 04:25:07;;;;;;;31.38;19.00;;;0.30;99.90;;;;;;5135954;27;20145;-81
2021/12/27 04:27:32;;;;;;;28.08;18.98;;;0.30;99.90;;;;;;5039064;28;20477;-81
2021/12/27 04:29:58;;;;;;;31.00;19.80;;;0.30;99.90;;;;;;5015407;28;20037;-84
2021/12/27 04:32:24;;;;;;;30.27;20.52;;;0.30;99.90;;;;;;5029321;28;20377;-81
2021/12/27 04:34:49;;;;;;;34.90;20.88;;;0.30;99.90;;;;;;5068995;27;20040;-80
2021/12/27 04:37:15;;;;;;;30.85;19.30;;;0.30;99.90;;;;;;5087191;28;20073;-81
2021/12/27 04:39:41;;;;;;;32.03;20.20;;;0.30;99.90;;;;;;5072149;28;20037;-81
2021/12/27 04:42:07;;;;;;;30.90;20.08;;;0.40;99.90;;;;;;5039581;28;20550;-82
2021/12/27 04:44:33;;;;;;;32.80;20.02;;;0.40;99.90;;;;;;5100156;28;20033;-81
2021/12/27 04:46:59;;;;;;;30.63;20.08;;;0.40;99.90;;;;;;5100416;28;20105;-81
2021/12/27 04:49:25;;;;;;;30.42;20.27;;;0.40;99.90;;;;;;5057734;28;20568;-81
2021/12/27 04:51:51;;;;;;;33.05;21.30;;;0.40;99.90;;;;;;5084166;28;20044;-81
2021/12/27 04:54:16;;;;;;;32.85;20.17;;;0.40;99.90;;;;;;5100538;28;20025;-82
2021/12/27 04:56:42;;;;;;;32.22;21.20;;;0.40;99.90;;;;;;5064542;28;20088;-81
2021/12/27 04:59:08;;;;;;;36.22;21.67;;;0.40;99.90;;;;;;5031335;28;20041;-81
2021/12/27 05:01:34;;;;;;;33.60;21.02;;;0.40;99.90;;;;;;5015260;28;20461;-81
2021/12/27 05:03:59;;;;;;;34.95;21.65;;;0.40;99.90;;;;;;5034772;27;20037;-81
2021/12/27 05:06:27;;;;;;;35.72;22.48;;;0.40;99.90;;;;;;5015000;28;20079;-81
2021/12/27 05:08:53;;;;;;;37.22;23.50;;;0.40;99.90;;;;;;5031500;28;20045;-81
2021/12/27 05:11:20;;;;;;;36.30;23.55;;;0.40;99.90;;;;;;5012454;28;20049;-81
2021/12/27 05:13:46;;;;;;;36.88;24.23;;;0.40;99.90;;;;;;5101303;28;20048;-82
2021/12/27 05:16:11;;;;;;;39.75;24.58;;;0.40;99.90;;;;;;5035236;28;20815;-84
2021/12/27 05:18:37;;;;;;;37.80;23.48;;;0.40;99.90;;;;;;5015053;28;20040;-82
2021/12/27 05:21:03;;;;;;;44.33;25.77;;;0.40;99.90;;;;;;5067138;28;20120;-81
2021/12/27 05:23:30;;;;;;;40.05;25.13;;;0.40;99.90;;;;;;5015694;28;20079;-82
2021/12/27 05:25:56;;;;;;;37.97;23.80;;;0.40;99.90;;;;;;5031036;28;20053;-81
2021/12/27 05:28:21;;;;;;;44.38;25.75;;;0.40;99.90;;;;;;5101600;28;20043;-81
2021/12/27 05:30:48;;;;;;;40.75;25.80;;;0.40;99.90;;;;;;5031170;28;20120;-81
2021/12/27 05:33:15;;;;;;;37.78;25.67;;;0.40;99.90;;;;;;5031904;28;20037;-81
2021/12/27 05:35:42;;;;;;;44.95;27.27;;;0.40;99.90;;;;;;5056628;27;20049;-82
2021/12/27 05:38:08;;;;;;;46.65;26.67;;;0.50;99.90;;;;;;5042754;28;20548;-82
2021/12/27 05:40:34;;;;;;;46.05;27.90;;;0.40;99.90;;;;;;5031103;28;20123;-82
2021/12/27 05:43:00;;;;;;;39.60;25.40;;;0.40;99.90;;;;;;5037750;28;20120;-82
2021/12/27 05:45:25;;;;;;;46.80;27.85;;;0.40;99.90;;;;;;5115720;28;20048;-82
2021/12/27 05:47:52;;;;;;;45.97;26.75;;;0.40;99.90;;;;;;5012734;28;20044;-82
2021/12/27 05:50:19;;;;;;;46.45;26.70;;;0.50;99.90;;;;;;5013109;28;20351;-81
2021/12/27 05:52:45;;;;;;;45.03;27.20;;;0.50;99.90;;;;;;5039047;28;20089;-82
2021/12/27 05:55:11;;;;;;;50.63;27.17;;;0.50;99.90;;;;;;5016680;28;20044;-81
2021/12/27 05:57:38;;;;;;;50.58;27.63;;;0.50;99.90;;;;;;5018830;28;20052;-83
2021/12/27 06:00:06;;;;;;;47.45;27.95;;;0.50;99.90;;;;;;5017328;28;20385;-82
2021/12/27 06:02:32;;;;;;;47.92;27.00;;;0.50;99.90;;;;;;5045160;27;20037;-82
2021/12/27 06:04:58;;;;;;;54.50;30.05;;;0.50;99.90;;;;;;5033775;28;20041;-82
2021/12/27 06:07:23;;;;;;;52.38;28.67;;;0.50;99.90;;;;;;5038273;28;20045;-82
2021/12/27 06:09:49;;;;;;;48.05;28.13;;;0.40;99.90;;;;;;5041164;28;20060;-82
2021/12/27 06:12:15;;;;;;;49.22;28.27;;;0.50;99.90;;;;;;5074713;27;20593;-81
2021/12/27 06:14:41;;;;;;;50.97;29.08;;;0.50;99.90;;;;;;5103032;28;20056;-83
2021/12/27 06:17:06;;;;;;;57.22;29.92;;;0.50;99.90;;;;;;5104029;27;20045;-82
2021/12/27 06:19:32;;;;;;;53.15;29.55;;;0.50;99.90;;;;;;5121177;27;20360;-82
2021/12/27 06:21:58;;;;;;;50.25;29.38;;;0.50;99.90;;;;;;5104724;27;20118;-82
2021/12/27 06:24:24;;;;;;;53.42;28.70;;;0.50;99.90;;;;;;5033768;28;20040;-82
2021/12/27 06:26:50;;;;;;;54.95;29.08;;;0.50;99.90;;;;;;5016381;28;20847;-81
2021/12/27 06:29:16;;;;;;;50.50;29.40;;;0.50;99.90;;;;;;5033400;28;20381;-81
2021/12/27 06:31:42;;;;;;;57.58;30.35;;;0.50;99.90;;;;;;5033262;28;20106;-83
2021/12/27 06:34:08;;;;;;;50.00;27.67;;;0.50;99.90;;;;;;5073648;28;20080;-81
2021/12/27 06:36:34;;;;;;;56.75;30.30;;;0.50;99.90;;;;;;5086212;28;20041;-82
2021/12/27 06:39:00;;;;;;;58.30;30.42;;;0.60;99.90;;;;;;5016617;28;20089;-81
2021/12/27 06:41:26;;;;;;;49.72;29.20;;;0.50;99.90;;;;;;5017279;28;20461;-81
2021/12/27 06:43:53;;;;;;;56.90;30.35;;;0.50;99.90;;;;;;5016535;28;20072;-82
2021/12/27 06:46:18;;;;;;;54.53;28.70;;;0.50;99.90;;;;;;5017855;28;20078;-82
2021/12/27 06:48:44;;;;;;;54.53;30.08;;;0.50;99.90;;;;;;5033043;28;20048;-82
2021/12/27 06:51:10;;;;;;;65.03;31.95;;;0.50;99.90;;;;;;5042672;27;20048;-81
2021/12/27 06:53:36;;;;;;;63.80;30.50;;;0.60;99.90;;;;;;5109660;27;20037;-82
2021/12/27 06:56:04;;;;;;;63.60;30.88;;;0.60;99.90;;;;;;5036230;28;20474;-84
2021/12/27 06:58:31;;;;;;;61.08;30.33;;;0.60;99.90;;;;;;5000560;28;20037;-83
2021/12/27 07:00:56;;;;;;;61.10;30.60;;;0.60;99.90;;;;;;5084146;28;20769;-83
2021/12/27 07:03:22;;;;;;;57.50;30.52;;;0.60;99.90;;;;;;5026662;27;20056;-84
2021/12/27 07:05:48;;;;;;;69.40;32.42;;;0.60;99.90;;;;;;5060060;27;20090;-83
2021/12/27 07:08:16;;;;;;;61.53;32.42;;;0.60;99.90;;;;;;5002050;28;20052;-82
2021/12/27 07:10:42;;;;;;;59.08;31.42;;;0.60;99.90;;;;;;5033882;28;20111;-80
2021/12/27 07:13:09;;;;;;;64.53;31.48;;;0.60;99.90;;;;;;5047819;28;20174;-81
2021/12/27 07:15:41;;;;;;;60.08;31.02;;;0.70;99.90;;;;;;5042805;27;20042;-82
2021/12/27 07:18:10;;;;;;;65.40;32.08;;;0.60;99.90;;;;;;5029405;28;20064;-84
2021/12/27 07:20:37;;;;;;;73.15;31.85;;;0.60;99.90;;;;;;5049275;27;20041;-82
2021/12/27 07:23:04;;;;;;;61.03;31.08;;;0.70;99.90;;;;;;5061916;27;20070;-81
2021/12/27 07:25:30;;;;;;;61.97;31.98;;;0.60;99.90;;;;;;5006967;27;20076;-84
2021/12/27 07:27:56;;;;;;;70.35;33.17;;;0.60;99.90;;;;;;5079048;27;20076;-81
2021/12/27 07:30:22;;;;;;;62.40;30.85;;;0.60;99.90;;;;;;5031236;28;20381;-83
2021/12/27 07:32:47;;;;;;;67.25;31.85;;;0.70;99.90;;;;;;5026337;27;20067;-86
2021/12/27 07:35:14;;;;;;;62.15;31.35;;;0.70;99.90;;;;;;5051400;28;20461;-85
2021/12/27 07:37:40;;;;;;;63.30;31.52;;;0.60;99.90;;;;;;5046715;27;20045;-86
2021/12/27 07:40:07;;;;;;;70.72;32.78;;;0.60;99.90;;;;;;4996363;28;20091;-88
2021/12/27 07:42:33;;;;;;;63.33;31.33;;;0.70;99.90;;;;;;4980895;28;20041;-88
2021/12/27 07:44:59;;;;;;;64.13;32.15;;;0.70;99.90;;;;;;5060834;27;20055;-86
2021/12/27 07:47:24;;;;;;;65.93;33.55;;;0.70;99.90;;;;;;5031557;28;20389;-84
2021/12/27 07:49:50;;;;;;;69.82;34.10;;;0.70;99.90;;;;;;5083633;28;20045;-85
2021/12/27 07:52:16;;;;;;;69.07;34.05;;;0.60;99.90;;;;;;5029299;28;20363;-86
2021/12/27 07:54:41;;;;;;;80.95;34.97;;;0.70;99.90;;;;;;5038944;28;20038;-87
2021/12/27 07:57:07;;;;;;;73.97;33.15;;;0.70;99.90;;;;;;5047545;28;20087;-84
2021/12/27 07:59:33;;;;;;;76.03;34.00;;;0.70;99.90;;;;;;5053669;27;20073;-84
2021/12/27 08:01:59;;;;;;;77.45;35.70;;;0.70;99.90;;;;;;5011626;27;20503;-83
2021/12/27 08:04:25;;;;;;;75.38;34.38;;;0.70;99.90;;;;;;5119572;27;20035;-81
2021/12/27 08:06:51;;;;;;;81.78;34.95;;;0.70;99.90;;;;;;5034711;28;20056;-80
2021/12/27 08:09:17;;;;;;;85.80;36.97;;;0.70;99.90;;;;;;5015599;28;20041;-82
2021/12/27 08:11:42;;;;;;;88.95;37.08;;;0.80;99.90;;;;;;5053941;28;20100;-83
2021/12/27 08:14:08;;;;;;;97.07;38.38;;;0.80;99.90;;;;;;5056161;28;20120;-84
2021/12/27 08:16:34;;;;;;;94.40;37.50;;;0.70;99.90;;;;;;5064991;27;20050;-86
2021/12/27 08:19:00;;;;;;;88.07;35.92;;;0.80;99.90;;;;;;5097876;27;20043;-80
2021/12/27 08:21:26;;;;;;;97.88;37.70;;;0.80;99.90;;;;;;5098232;27;20037;-78
2021/12/27 08:23:52;;;;;;;113.65;40.13;;;0.80;99.90;;;;;;5000636;28;20045;-79
2021/12/27 08:26:19;;;;;;;100.95;38.03;;;0.80;99.90;;;;;;5019192;28;20485;-81
2021/12/27 08:28:48;;;;;;;110.13;40.03;;;0.80;99.90;;;;;;5032483;28;20041;-78
2021/12/27 08:31:14;;;;;;;108.57;39.85;;;0.80;99.90;;;;;;5015179;28;20166;-79
2021/12/27 08:33:40;;;;;;;97.72;38.58;;;0.80;99.90;;;;;;5075396;27;20139;-79
2021/12/27 08:36:06;;;;;;;106.35;40.63;;;0.80;99.90;;;;;;5057015;27;20045;-80
2021/12/27 08:38:32;;;;;;;120.35;43.33;;;0.80;99.90;;;;;;5034921;27;20047;-81
2021/12/27 08:40:58;;;;;;;122.43;42.63;;;0.80;99.90;;;;;;5034268;28;20251;-81
2021/12/27 08:43:25;;;;;;;122.47;43.40;;;0.80;99.90;;;;;;5045276;28;20132;-85
2021/12/27 08:45:52;;;;;;;138.45;42.50;;;0.90;99.90;;;;;;5097304;27;20113;-80
2021/12/27 08:48:18;;;;;;;130.00;43.53;;;0.90;99.90;;;;;;5047641;28;20397;-80
2021/12/27 08:50:44;;;;;;;115.38;42.95;;;0.90;99.90;;;;;;5040329;28;20041;-80
2021/12/27 08:53:09;;;;;;;121.18;42.08;;;0.90;99.90;;;;;;5047063;28;20052;-78
2021/12/27 08:55:37;;;;;;;147.23;44.63;;;0.90;99.90;;;;;;5070118;28;20226;-80
2021/12/27 08:58:03;;;;;;;132.82;43.33;;;0.90;99.90;;;;;;5054774;28;20481;-81
2021/12/27 09:00:29;;;;;;;152.38;45.67;;;1.00;99.90;;;;;;5071008;28;20041;-77
2021/12/27 09:02:54;;;;;;;140.23;44.55;;;1.00;99.90;;;;;;5037420;28;20052;-80
2021/12/27 09:05:20;;;;;;;149.13;45.83;;;1.00;99.90;;;;;;5085159;27;20038;-79
2021/12/27 09:07:46;;;;;;;142.20;45.70;;;1.10;99.90;;;;;;5135580;27;20129;-80
2021/12/27 09:10:13;;;;;;;148.00;45.42;;;1.00;99.90;;;;;;5085829;28;20124;-81
2021/12/27 09:12:40;;;;;;;132.75;44.03;;;1.00;99.90;;;;;;5031502;28;20076;-84
2021/12/27 09:15:07;;;;;;;140.63;46.83;;;1.00;99.90;;;;;;5029439;28;20071;-85
2021/12/27 09:17:33;;;;;;;123.90;44.97;;;1.00;99.90;;;;;;5015107;28;20422;-84
2021/12/27 09:19:59;;;;;;;150.48;46.38;;;1.10;99.90;;;;;;5115797;28;20053;-81
2021/12/27 09:22:25;;;;;;;134.70;45.17;;;1.10;99.90;;;;;;5048850;28;20384;-80
2021/12/27 09:24:50;;;;;;;153.38;45.97;;;1.10;99.90;;;;;;5034963;28;20046;-80
2021/12/27 09:27:17;;;;;;;146.48;47.03;;;1.10;99.90;;;;;;5083459;27;20045;-79
2021/12/27 09:29:43;;;;;;;163.18;45.90;;;1.20;99.90;;;;;;5047172;28;20085;-80
2021/12/27 09:32:10;;;;;;;169.63;44.92;;;1.20;99.90;;;;;;5052904;28;20045;-80
2021/12/27 09:34:37;;;;;;;159.45;47.45;;;1.20;99.90;;;;;;5049246;28;20477;-82
2021/12/27 09:37:03;;;;;;;174.77;48.00;;;1.20;99.90;;;;;;5062380;27;20048;-86
2021/12/27 09:39:29;;;;;;;203.70;48.90;;;1.20;99.90;;;;;;5066398;28;20033;-80
2021/12/27 09:41:54;;;;;;;184.90;50.05;;;1.20;99.90;;;;;;5047758;27;20051;-81
2021/12/27 09:44:20;;;;;;;161.30;45.95;;;1.30;99.90;;;;;;5069495;27;20042;-81
2021/12/27 09:46:46;;;;;;;218.80;53.38;;;1.30;99.90;;;;;;5044391;27;20465;-81
2021/12/27 09:49:14;;;;;;;218.52;49.78;;;1.30;99.90;;;;;;5044160;27;20037;-81
2021/12/27 09:51:41;;;;;;;224.48;52.63;;;1.30;99.90;;;;;;5025905;28;20045;-80
2021/12/27 09:54:07;;;;;;;210.93;49.50;;;1.30;99.90;;;;;;5066291;28;20473;-80
2021/12/27 09:56:34;;;;;;;170.88;47.75;;;1.40;99.90;;;;;;5043481;27;20041;-83
2021/12/27 09:59:00;;;;;;;160.85;46.53;;;1.40;99.90;;;;;;5045427;27;20393;-80
2021/12/27 10:01:25;;;;;;;182.10;48.55;;;1.30;99.90;;;;;;5018260;28;20040;-81
2021/12/27 10:03:53;;;;;;;226.13;50.30;;;1.30;99.90;;;;;;5104600;27;20077;-81
2021/12/27 10:06:20;;;;;;;190.82;48.00;;;1.40;99.90;;;;;;5038477;28;20389;-82
2021/12/27 10:08:52;;;;;;;201.77;48.47;;;1.40;99.90;;;;;;5063418;28;20074;-79
2021/12/27 10:11:31;;;;;;;162.70;45.78;;;1.40;99.90;;;;;;5015001;28;20048;-80
2021/12/27 10:14:17;;;;;;;170.05;46.20;;;1.40;99.90;;;;;;5035696;28;20057;-78
2021/12/27 10:16:46;;;;;;;196.63;47.60;;;1.40;99.90;;;;;;5057871;27;20029;-81
2021/12/27 10:19:15;;;;;;;193.90;48.45;;;1.50;99.90;;;;;;5038854;27;20041;-81
2021/12/27 10:21:41;;;;;;;176.50;47.30;;;1.50;99.90;;;;;;5065018;28;20132;-82
2021/12/27 10:24:09;;;;;;;162.70;45.50;;;1.50;99.90;;;;;;5041906;28;20041;-86
2021/12/27 10:26:37;;;;;;;189.85;47.75;;;1.50;99.90;;;;;;5029990;28;20373;-81
2021/12/27 10:29:12;;;;;;;152.98;44.90;;;1.60;99.90;;;;;;5008516;28;20045;-84
2021/12/27 10:31:56;;;;;;;200.30;47.20;;;1.60;99.90;;;;;;5030455;28;20049;-83
2021/12/27 10:34:25;;;;;;;166.73;44.35;;;1.70;99.90;;;;;;5045040;28;20041;-82
2021/12/27 10:36:57;;;;;;;155.52;43.70;;;1.70;99.90;;;;;;5030163;28;20056;-83
2021/12/27 10:39:22;;;;;;;198.00;47.72;;;1.70;99.90;;;;;;5076923;27;20106;-80
2021/12/27 10:41:48;;;;;;;191.50;48.40;;;1.70;99.90;;;;;;5053285;27;20495;-77
2021/12/27 10:44:13;;;;;;;177.35;47.05;;;1.70;99.90;;;;;;5041930;28;20037;-79
2021/12/27 10:46:39;;;;;;;203.55;47.78;;;1.80;99.90;;;;;;5027777;27;20080;-80
2021/12/27 10:49:05;;;;;;;173.48;47.53;;;1.80;99.90;;;;;;5055916;28;20041;-80
2021/12/27 10:51:31;;;;;;;171.30;45.67;;;1.90;99.90;;;;;;5066248;28;20045;-79
2021/12/27 10:53:59;;;;;;;164.30;45.05;;;1.90;99.90;;;;;;5036031;27;20404;-80
2021/12/27 10:56:26;;;;;;;184.40;48.83;;;1.90;99.90;;;;;;5025087;28;20037;-82
2021/12/27 10:58:55;;;;;;;172.35;44.05;;;1.90;99.90;;;;;;5075169;27;20045;-84
2021/12/27 11:01:23;;;;;;;189.23;46.03;;;1.90;99.90;;;;;;5035508;28;20041;-84
2021/12/27 11:03:53;;;;;;;163.30;45.40;;;2.00;99.90;;;;;;5018300;28;20040;-82
2021/12/27 11:06:24;;;;;;;160.18;42.63;;;2.00;99.90;;;;;;5025099;28;20032;-80
2021/12/27 11:08:51;;;;;;;149.93;42.85;;;2.10;99.90;;;;;;5029536;27;20150;-80
2021/12/27 11:11:19;;;;;;;161.55;41.50;;;2.10;99.90;;;;;;5010363;28;20048;-80
2021/12/27 11:13:47;;;;;;;144.30;42.20;;;2.10;99.90;;;;;;5007492;28;20046;-81
2021/12/27 11:16:13;;;;;;;132.02;40.67;;;2.10;99.90;;;;;;5064656;27;20070;-79
2021/12/27 11:18:39;;;;;;;133.98;40.40;;;2.20;99.90;;;;;;5032480;28;20045;-84
2021/12/27 11:21:17;;;;;;;133.02;42.55;;;2.10;99.90;;;;;;5031534;28;20044;-81
2021/12/27 11:23:47;;;;;;;140.25;41.03;;;2.10;99.90;;;;;;5017817;28;20048;-78
2021/12/27 11:26:20;;;;;;;134.13;40.25;;;2.10;99.90;;;;;;5031019;28;20043;-86
2021/12/27 11:28:46;;;;;;;148.18;42.40;;;2.10;99.90;;;;;;5036589;28;20044;-84
2021/12/27 11:31:30;;;;;;;148.43;42.15;;;2.10;99.90;;;;;;5118102;27;20132;-83
2021/12/27 11:34:05;;;;;;;115.57;38.33;;;2.20;99.90;;;;;;5031215;28;20045;-81
2021/12/27 11:36:35;;;;;;;155.90;40.38;;;2.10;99.90;;;;;;5042699;28;20041;-82
2021/12/27 11:39:22;;;;;;;140.43;39.28;;;2.20;99.90;;;;;;5023162;28;20062;-81
2021/12/27 11:42:04;;;;;;;141.82;41.88;;;2.20;99.90;;;;;;5035391;28;20567;-80
2021/12/27 11:44:53;;;;;;;140.25;41.40;;;2.30;99.90;;;;;;5031843;28;20080;-82
2021/12/27 11:47:32;;;;;;;129.98;39.33;;;2.30;99.90;;;;;;5031538;28;20144;-81
2021/12/27 11:50:08;;;;;;;150.38;41.55;;;2.30;99.90;;;;;;5065079;28;20080;-81
2021/12/27 11:52:39;;;;;;;157.77;42.63;;;2.30;99.90;;;;;;5071236;27;20335;-83
2021/12/27 11:55:06;;;;;;;130.85;40.10;;;2.30;99.90;;;;;;5015829;28;20288;-80
2021/12/27 11:57:52;;;;;;;140.60;39.70;;;2.40;99.90;;;;;;5008198;28;20044;-80
2021/12/27 12:00:20;;;;;;;141.20;39.72;;;2.40;99.90;;;;;;5014516;28;20385;-79
2021/12/27 12:03:15;;;;;;;135.60;38.83;;;2.50;99.90;;;;;;5025703;28;20508;-79
2021/12/27 12:05:54;;;;;;;137.77;38.63;;;2.50;99.90;;;;;;5017760;28;20063;-81
2021/12/27 12:08:40;;;;;;;133.45;39.10;;;2.50;99.90;;;;;;5068062;27;20396;-81
2021/12/27 12:11:10;;;;;;;117.13;36.65;;;2.50;99.90;;;;;;5026022;28;20385;-85
2021/12/27 12:13:43;;;;;;;139.80;39.13;;;2.50;99.90;;;;;;5017886;28;20977;-81
2021/12/27 12:16:13;;;;;;;128.98;38.13;;;2.50;99.90;;;;;;5009288;28;20041;-82
2021/12/27 12:18:42;;;;;;;122.07;39.42;;;2.50;99.90;;;;;;5028962;28;20037;-81
2021/12/27 12:21:33;;;;;;;132.30;37.65;;;2.50;99.90;;;;;;5027872;28;20049;-81
2021/12/27 12:24:11;;;;;;;138.55;39.75;;;2.50;99.90;;;;;;5011468;28;20044;-81
2021/12/27 12:26:56;;;;;;;138.75;39.10;;;2.50;99.90;;;;;;5024559;28;20042;-82
2021/12/27 12:29:23;;;;;;;138.65;39.22;;;2.60;99.90;;;;;;5063761;28;20079;-83
2021/12/27 12:31:57;;;;;;;147.18;41.03;;;2.60;99.90;;;;;;4999754;28;20107;-83
2021/12/27 12:34:23;;;;;;;134.18;38.25;;;2.60;99.90;;;;;;5032415;28;20528;-84
2021/12/27 12:36:57;;;;;;;148.95;41.13;;;2.60;99.90;;;;;;5033109;28;20124;-84
2021/12/27 12:39:33;;;;;;;161.02;41.25;;;2.60;99.90;;;;;;5032628;28;20124;-84
2021/12/27 12:42:11;;;;;;;127.93;36.42;;;2.60;99.90;;;;;;5032580;28;20269;-83